createdAt,value
2022-12-29T00:11:14.705Z,9.50
2022-12-29T00:14:01.645Z,9.50
2022-12-29T00:16:30.400Z,9.50
2022-12-29T00:21:45.645Z,9.40
2022-12-29T00:24:33.666Z,9.50
2022-12-29T00:27:27.085Z,9.40
2022-12-29T00:30:14.280Z,9.50
2022-12-29T00:35:32.128Z,9.30
2022-12-29T00:38:23.140Z,9.40
2022-12-29T00:41:09.123Z,9.60
2022-12-29T00:46:24.842Z,9.80
2022-12-29T00:49:10.524Z,9.50
2022-12-29T00:51:39.153Z,9.40
2022-12-29T00:56:36.433Z,9.40
2022-12-29T00:59:05.363Z,9.50
2022-12-29T01:01:35.763Z,9.50
2022-12-29T01:04:05.214Z,9.20
2022-12-29T01:09:20.408Z,9.50
2022-12-29T01:14:18.429Z,9.50
2022-12-29T01:31:42.824Z,9.90
2022-12-29T01:34:12.580Z,9.50
2022-12-29T01:36:40.931Z,9.50
2022-12-29T01:44:39.570Z,9.50
2022-12-29T01:47:10.396Z,9.60
2022-12-29T01:49:40.818Z,9.50
2022-12-29T01:52:10.162Z,9.50
2022-12-29T01:54:42.850Z,9.40
2022-12-29T01:57:18.389Z,9.70
2022-12-29T01:59:53.312Z,8.70
2022-12-29T02:04:52.193Z,9.40
2022-12-29T02:07:23.499Z,9.40
2022-12-29T02:09:53.873Z,9.60
2022-12-29T02:12:24.753Z,9.40
2022-12-29T02:14:58.158Z,9.70
2022-12-29T02:17:38.807Z,9.40
2022-12-29T02:20:35.462Z,9.50
2022-12-29T02:23:26.519Z,9.40
2022-12-29T02:26:18.047Z,9.40
2022-12-29T02:29:05.882Z,9.40
2022-12-29T02:31:43.705Z,9.40
2022-12-29T02:34:26.417Z,9.40
2022-12-29T02:36:58.592Z,9.40
2022-12-29T02:39:36.793Z,9.30
2022-12-29T02:42:13.365Z,9.40
2022-12-29T02:44:50.718Z,9.40
2022-12-29T02:47:27.907Z,9.40
2022-12-29T02:50:04.003Z,9.40
2022-12-29T02:52:37.521Z,9.50
2022-12-29T02:55:05.749Z,9.30
2022-12-29T02:57:35.954Z,9.40
2022-12-29T03:00:08.813Z,9.50
2022-12-29T03:02:56.865Z,9.40
2022-12-29T03:05:48.826Z,9.50
2022-12-29T03:08:25.140Z,9.40
2022-12-29T03:11:03.975Z,9.40
2022-12-29T03:13:57.379Z,9.50
2022-12-29T03:16:34.578Z,9.50
2022-12-29T03:19:09.702Z,9.50
2022-12-29T03:21:59.169Z,9.60
2022-12-29T03:24:32.267Z,9.40
2022-12-29T03:27:03.417Z,9.40
2022-12-29T03:29:41.709Z,9.50
2022-12-29T03:32:13.926Z,9.50
2022-12-29T03:34:44.342Z,9.50
2022-12-29T03:37:16.390Z,9.40
2022-12-29T03:42:22.301Z,9.40
2022-12-29T03:49:51.700Z,10.10
2022-12-29T04:02:31.504Z,9.20
2022-12-29T04:05:01.457Z,9.40
2022-12-29T04:22:46.703Z,9.50
2022-12-29T04:38:12.315Z,9.50
2022-12-29T05:11:34.336Z,9.50
2022-12-29T05:29:20.542Z,9.40
2022-12-29T05:34:18.469Z,9.60
2022-12-29T05:44:31.235Z,9.60
2022-12-29T05:47:31.698Z,9.70
2022-12-29T05:53:19.122Z,9.90
2022-12-29T05:55:49.551Z,9.60
2022-12-29T05:58:19.367Z,8.40
2022-12-29T06:00:50.460Z,9.60
2022-12-29T06:18:20.181Z,9.70
2022-12-29T06:23:20.428Z,9.70
2022-12-29T06:25:50.396Z,9.50
2022-12-29T06:33:18.806Z,10.80
2022-12-29T06:48:53.519Z,9.60
2022-12-29T07:03:44.980Z,9.00
2022-12-29T07:06:14.825Z,9.60
2022-12-29T07:16:10.150Z,9.50
2022-12-29T07:18:38.835Z,9.50
2022-12-29T07:23:37.281Z,9.60
2022-12-29T07:26:07.758Z,9.50
2022-12-29T07:28:39.024Z,9.60
2022-12-29T07:41:03.324Z,9.60
2022-12-29T07:56:51.016Z,9.60
2022-12-29T08:09:21.931Z,9.30
2022-12-29T08:11:52.444Z,9.60
2022-12-29T08:14:21.215Z,9.60
2022-12-29T08:21:46.803Z,9.60
2022-12-29T08:29:13.746Z,9.60
2022-12-29T08:34:10.626Z,9.70
2022-12-29T08:46:34.850Z,9.70
2022-12-29T09:04:18.120Z,9.70
2022-12-29T09:11:44.881Z,9.90
2022-12-29T09:14:13.597Z,9.90
2022-12-29T09:16:59.958Z,9.70
2022-12-29T09:19:29.842Z,9.80
2022-12-29T09:21:58.095Z,9.70
2022-12-29T09:36:50.974Z,9.80
2022-12-29T09:41:54.624Z,9.60
2022-12-29T09:44:28.182Z,10.20
2022-12-29T09:46:58.928Z,9.80
2022-12-29T09:49:33.257Z,9.70
2022-12-29T09:52:08.013Z,9.80
2022-12-29T09:54:43.479Z,9.90
2022-12-29T09:57:18.171Z,9.70
2022-12-29T09:59:48.716Z,9.80
2022-12-29T10:02:34.482Z,9.80
2022-12-29T10:07:47.710Z,9.80
2022-12-29T10:10:32.273Z,9.80
2022-12-29T10:13:09.161Z,9.80
2022-12-29T10:15:57.794Z,9.80
2022-12-29T10:18:50.912Z,9.70
2022-12-29T10:21:29.554Z,9.90
2022-12-29T10:24:04.900Z,9.90
2022-12-29T10:26:38.144Z,9.70
2022-12-29T10:29:08.666Z,9.60
2022-12-29T10:31:41.501Z,9.80
2022-12-29T10:34:22.816Z,9.80
2022-12-29T10:36:57.020Z,9.80
2022-12-29T10:39:33.869Z,9.80
2022-12-29T10:42:12.058Z,9.90
2022-12-29T10:44:40.660Z,10.30
2022-12-29T10:47:14.193Z,9.90
2022-12-29T10:49:44.858Z,9.80
2022-12-29T10:52:15.180Z,10.10
2022-12-29T10:54:51.629Z,9.90
2022-12-29T10:57:29.025Z,9.80
2022-12-29T10:59:57.598Z,9.90
2022-12-29T11:02:48.909Z,10.00
2022-12-29T11:05:24.758Z,9.90
2022-12-29T11:07:58.534Z,9.90
2022-12-29T11:10:38.108Z,9.80
2022-12-29T11:13:14.239Z,10.10
2022-12-29T11:15:43.807Z,9.90
2022-12-29T11:18:26.524Z,10.00
2022-12-29T11:20:57.036Z,10.10
2022-12-29T11:23:30.463Z,10.00
2022-12-29T11:26:19.040Z,9.90
2022-12-29T11:28:49.261Z,10.00
2022-12-29T11:31:23.904Z,11.30
2022-12-29T11:36:24.030Z,9.90
2022-12-29T11:38:54.289Z,10.00
2022-12-29T11:41:25.936Z,10.10
2022-12-29T11:43:55.034Z,10.00
2022-12-29T11:46:26.873Z,10.00
2022-12-29T11:51:30.391Z,9.50
2022-12-29T11:54:00.706Z,10.10
2022-12-29T11:56:41.355Z,10.10
2022-12-29T11:59:38.959Z,10.30
2022-12-29T12:02:43.711Z,10.20
2022-12-29T12:05:28.014Z,10.20
2022-12-29T12:08:04.437Z,9.90
2022-12-29T12:10:39.778Z,10.20
2022-12-29T12:13:20.163Z,10.20
2022-12-29T12:15:57.005Z,10.20
2022-12-29T12:18:38.803Z,10.20
2022-12-29T12:21:16.131Z,10.20
2022-12-29T12:24:02.836Z,9.90
2022-12-29T12:26:36.345Z,10.20
2022-12-29T12:29:14.341Z,10.20
2022-12-29T12:31:48.783Z,10.10
2022-12-29T12:34:23.772Z,10.60
2022-12-29T12:37:05.785Z,10.20
2022-12-29T12:39:43.135Z,10.20
2022-12-29T12:42:27.818Z,10.20
2022-12-29T12:45:12.653Z,10.40
2022-12-29T12:47:54.362Z,10.30
2022-12-29T12:50:45.630Z,10.30
2022-12-29T12:53:46.374Z,10.20
2022-12-29T12:56:41.258Z,10.50
2022-12-29T12:59:19.504Z,10.30
2022-12-29T13:01:58.378Z,10.30
2022-12-29T13:04:59.766Z,10.80
2022-12-29T13:07:39.882Z,10.30
2022-12-29T13:10:40.975Z,10.20
2022-12-29T13:13:39.976Z,10.30
2022-12-29T13:16:16.689Z,10.30
2022-12-29T13:18:53.222Z,10.30
2022-12-29T13:21:35.247Z,10.50
2022-12-29T13:24:09.611Z,10.10
2022-12-29T13:26:44.317Z,10.40
2022-12-29T13:29:19.865Z,10.40
2022-12-29T13:31:55.899Z,10.40
2022-12-29T13:34:33.280Z,10.20
2022-12-29T13:37:04.855Z,10.00
2022-12-29T13:39:34.228Z,10.40
2022-12-29T13:42:05.605Z,10.70
2022-12-29T13:44:37.713Z,10.80
2022-12-29T13:47:16.499Z,10.90
2022-12-29T13:49:47.167Z,10.90
2022-12-29T13:52:23.939Z,10.80
2022-12-29T13:55:00.284Z,10.90
2022-12-29T13:57:41.913Z,10.70
2022-12-29T14:18:11.895Z,10.70
2022-12-29T14:23:30.730Z,11.00
2022-12-29T14:28:30.229Z,10.80
2022-12-29T14:38:31.361Z,11.00
2022-12-29T14:41:26.045Z,10.60
2022-12-29T14:43:57.909Z,10.70
2022-12-29T14:46:27.066Z,10.70
2022-12-29T14:49:02.201Z,10.50
2022-12-29T14:51:36.874Z,10.70
2022-12-29T14:54:38.271Z,10.70
2022-12-29T14:57:11.271Z,10.70
2022-12-29T15:02:21.026Z,10.70
2022-12-29T15:04:49.920Z,10.70
2022-12-29T15:07:21.780Z,10.70
2022-12-29T15:09:56.729Z,10.70
2022-12-29T15:12:35.058Z,10.70
2022-12-29T15:15:03.549Z,10.80
2022-12-29T15:22:47.611Z,10.60
2022-12-29T15:25:18.936Z,10.80
2022-12-29T15:27:52.385Z,10.70
2022-12-29T15:30:21.497Z,10.70
2022-12-29T15:32:53.928Z,10.70
2022-12-29T15:35:29.638Z,10.70
2022-12-29T15:38:00.067Z,10.70
2022-12-29T15:40:30.165Z,10.70
2022-12-29T15:43:35.411Z,10.80
2022-12-29T15:46:04.099Z,10.80
2022-12-29T15:48:33.657Z,10.70
2022-12-29T15:51:02.900Z,10.60
2022-12-29T15:53:34.772Z,10.70
2022-12-29T15:56:07.624Z,10.70
2022-12-29T15:58:45.504Z,10.90
2022-12-29T16:01:21.107Z,10.70
2022-12-29T16:03:50.057Z,10.80
2022-12-29T16:06:30.419Z,10.70
2022-12-29T16:09:03.472Z,10.70
2022-12-29T16:11:38.451Z,10.60
2022-12-29T16:14:11.198Z,10.70
2022-12-29T16:16:41.883Z,10.80
2022-12-29T16:21:44.946Z,10.90
2022-12-29T16:24:18.802Z,10.60
2022-12-29T16:26:51.993Z,10.40
2022-12-29T16:29:23.270Z,10.00
2022-12-29T16:32:01.715Z,10.70
2022-12-29T16:34:33.061Z,10.70
2022-12-29T16:37:03.669Z,10.80
2022-12-29T16:39:40.943Z,10.90
2022-12-29T16:42:37.684Z,10.60
2022-12-29T16:46:04.756Z,10.70
2022-12-29T16:48:35.632Z,8.70
2022-12-29T16:51:06.623Z,10.80
2022-12-29T16:53:37.892Z,10.70
2022-12-29T16:56:15.624Z,10.80
2022-12-29T16:58:49.375Z,10.70
2022-12-29T17:03:52.113Z,10.80
2022-12-29T17:06:22.538Z,10.80
2022-12-29T17:08:52.301Z,10.90
2022-12-29T17:11:43.492Z,10.90
2022-12-29T17:14:25.325Z,10.80
2022-12-29T17:16:53.894Z,10.80
2022-12-29T17:19:27.649Z,10.80
2022-12-29T17:26:58.360Z,10.30
2022-12-29T17:29:34.929Z,10.80
2022-12-29T17:32:05.697Z,10.80
2022-12-29T17:34:34.593Z,10.80
2022-12-29T17:42:01.628Z,10.80
2022-12-29T17:44:30.029Z,10.90
2022-12-29T17:54:26.562Z,10.80
2022-12-29T17:56:54.926Z,11.00
2022-12-29T18:09:21.130Z,11.10
2022-12-29T18:11:49.451Z,11.00
2022-12-29T18:14:18.760Z,10.70
2022-12-29T18:16:48.384Z,10.80
2022-12-29T18:24:16.148Z,10.70
2022-12-29T18:34:15.798Z,10.80
2022-12-29T18:41:41.711Z,10.30
2022-12-29T18:44:13.932Z,10.70
2022-12-29T18:49:10.978Z,10.60
2022-12-29T18:51:43.182Z,10.50
2022-12-29T18:54:29.566Z,10.50
2022-12-29T18:56:58.585Z,10.70
2022-12-29T18:59:27.432Z,10.60
2022-12-29T19:06:54.245Z,10.60
2022-12-29T19:19:18.133Z,10.60
2022-12-29T19:24:16.320Z,10.30
2022-12-29T19:29:16.424Z,10.60
2022-12-29T19:34:15.942Z,10.70
2022-12-29T19:39:13.391Z,10.60
2022-12-29T19:41:43.469Z,10.60
2022-12-29T19:59:04.889Z,10.70
2022-12-29T20:06:31.372Z,10.80
2022-12-29T20:13:57.391Z,11.50
2022-12-29T20:16:27.361Z,11.40
2022-12-29T20:18:56.415Z,11.10
2022-12-29T20:21:25.960Z,11.20
2022-12-29T20:23:55.058Z,11.10
2022-12-29T20:26:26.650Z,11.40
2022-12-29T20:28:55.073Z,11.20
2022-12-29T20:31:27.756Z,11.20
2022-12-29T20:33:56.177Z,11.10
2022-12-29T20:36:26.647Z,11.30
2022-12-29T20:38:56.702Z,11.20
2022-12-29T20:43:54.533Z,11.30
2022-12-29T20:46:29.910Z,11.20
2022-12-29T20:49:02.261Z,11.20
2022-12-29T20:54:20.067Z,11.50
2022-12-29T20:56:48.787Z,11.60
2022-12-29T21:04:27.598Z,11.50
2022-12-29T21:21:51.922Z,11.20
2022-12-29T21:39:16.394Z,11.00
2022-12-29T21:46:59.759Z,11.00
2022-12-29T21:49:28.715Z,11.00
2022-12-29T21:51:57.717Z,11.10
2022-12-29T21:54:47.659Z,11.20
2022-12-29T21:57:38.817Z,11.10
2022-12-29T22:00:26.731Z,11.00
2022-12-29T22:03:20.162Z,11.10
2022-12-29T22:08:55.408Z,11.20
2022-12-29T22:11:42.533Z,11.00
2022-12-29T22:14:11.052Z,11.10
2022-12-29T22:16:39.258Z,10.90
2022-12-29T22:21:37.312Z,11.10
2022-12-29T22:24:06.045Z,11.30
2022-12-29T22:26:35.736Z,11.10
2022-12-29T22:34:04.259Z,11.10
2022-12-29T22:36:33.473Z,11.10
2022-12-29T22:41:30.350Z,10.60
2022-12-29T22:43:59.951Z,11.10
2022-12-29T22:46:28.286Z,11.10
2022-12-29T22:48:58.279Z,10.90
2022-12-29T22:56:23.644Z,11.60
2022-12-29T22:58:51.923Z,11.10
2022-12-29T23:01:22.718Z,11.10
2022-12-29T23:03:51.424Z,11.10
2022-12-29T23:08:48.556Z,11.10
2022-12-29T23:13:46.180Z,11.30
2022-12-29T23:16:15.960Z,10.40
2022-12-29T23:26:27.499Z,11.00
2022-12-29T23:29:00.296Z,11.30
2022-12-29T23:36:28.713Z,11.20
2022-12-29T23:41:26.470Z,11.00
2022-12-29T23:46:25.752Z,11.00
2022-12-29T23:48:54.250Z,11.40
